createdAt,value
2018-08-16T00:00:27.640Z,21.07
2018-08-16T00:02:56.135Z,21.19
2018-08-16T00:05:24.787Z,21.17
2018-08-16T00:07:53.277Z,21.20
2018-08-16T00:10:21.716Z,21.19
2018-08-16T00:12:51.204Z,21.17
2018-08-16T00:15:20.808Z,21.04
2018-08-16T00:17:49.295Z,21.03
2018-08-16T00:20:18.186Z,21.04
2018-08-16T00:22:47.091Z,20.99
2018-08-16T00:25:16.174Z,20.89
2018-08-16T00:27:45.070Z,20.90
2018-08-16T00:30:15.107Z,20.86
2018-08-16T00:32:43.920Z,20.71
2018-08-16T00:35:12.526Z,20.69
2018-08-16T00:37:40.955Z,20.95
2018-08-16T00:40:13.176Z,20.99
2018-08-16T00:42:41.707Z,20.90
2018-08-16T00:45:11.127Z,20.73
2018-08-16T00:47:39.578Z,20.81
2018-08-16T00:50:09.767Z,20.89
2018-08-16T00:52:38.241Z,20.91
2018-08-16T00:55:07.537Z,20.94
2018-08-16T00:57:36.800Z,20.84
2018-08-16T01:00:06.933Z,20.76
2018-08-16T01:02:35.496Z,20.58
2018-08-16T01:05:04.020Z,20.51
2018-08-16T01:07:32.514Z,20.63
2018-08-16T01:10:01.241Z,20.63
2018-08-16T01:12:29.695Z,20.49
2018-08-16T01:14:58.243Z,20.52
2018-08-16T01:17:26.695Z,20.43
2018-08-16T01:19:55.159Z,20.39
2018-08-16T01:22:23.595Z,20.57
2018-08-16T01:24:52.100Z,20.73
2018-08-16T01:27:20.573Z,20.64
2018-08-16T01:29:49.240Z,20.55
2018-08-16T01:32:17.653Z,20.53
2018-08-16T01:34:46.072Z,20.58
2018-08-16T01:37:14.517Z,20.48
2018-08-16T01:39:42.938Z,20.49
2018-08-16T01:42:11.445Z,20.31
2018-08-16T01:44:39.851Z,20.25
2018-08-16T01:47:08.533Z,20.31
2018-08-16T01:49:38.041Z,20.29
2018-08-16T01:52:06.824Z,20.39
2018-08-16T01:54:35.727Z,20.32
2018-08-16T01:57:04.682Z,20.31
2018-08-16T01:59:33.159Z,20.37
2018-08-16T02:02:01.639Z,20.44
2018-08-16T02:04:30.114Z,20.28
2018-08-16T02:06:58.590Z,20.19
2018-08-16T02:09:27.051Z,20.05
2018-08-16T02:11:55.514Z,20.11
2018-08-16T02:14:23.963Z,20.03
2018-08-16T02:16:52.634Z,20.14
2018-08-16T02:19:21.140Z,20.20
2018-08-16T02:21:49.596Z,20.18
2018-08-16T02:24:18.044Z,20.11
2018-08-16T02:26:46.605Z,20.09
2018-08-16T02:29:15.054Z,19.88
2018-08-16T02:31:43.524Z,19.98
2018-08-16T02:34:12.040Z,20.09
2018-08-16T02:36:40.489Z,20.07
2018-08-16T02:39:10.246Z,20.12
2018-08-16T02:41:39.538Z,20.16
2018-08-16T02:44:08.905Z,20.18
2018-08-16T02:46:37.359Z,20.18
2018-08-16T02:49:06.386Z,20.09
2018-08-16T02:51:35.174Z,20.03
2018-08-16T02:54:03.663Z,20.92
2018-08-16T02:56:32.112Z,22.94
2018-08-16T02:59:00.795Z,23.21
2018-08-16T03:01:29.492Z,22.91
2018-08-16T03:03:58.170Z,22.93
2018-08-16T03:06:26.590Z,23.22
2018-08-16T03:08:55.231Z,23.38
2018-08-16T03:11:23.735Z,22.76
2018-08-16T03:13:52.165Z,22.62
2018-08-16T03:16:20.703Z,22.44
2018-08-16T03:18:49.119Z,22.01
2018-08-16T03:21:17.612Z,22.54
2018-08-16T03:23:46.063Z,23.45
2018-08-16T03:26:14.528Z,22.98
2018-08-16T03:28:43.012Z,22.64
2018-08-16T03:31:11.473Z,22.99
2018-08-16T03:33:39.899Z,23.04
2018-08-16T03:36:08.370Z,22.65
2018-08-16T03:38:36.779Z,21.82
2018-08-16T03:41:05.303Z,21.98
2018-08-16T03:43:33.713Z,20.72
2018-08-16T03:46:02.136Z,20.45
2018-08-16T03:48:30.616Z,20.21
2018-08-16T03:50:59.076Z,20.12
2018-08-16T03:53:27.526Z,20.24
2018-08-16T03:55:56.272Z,20.42
2018-08-16T03:58:24.788Z,20.31
2018-08-16T04:00:53.483Z,20.24
2018-08-16T04:03:21.937Z,19.98
2018-08-16T04:05:50.393Z,19.90
2018-08-16T04:08:18.849Z,19.94
2018-08-16T04:10:47.299Z,19.78
2018-08-16T04:13:15.707Z,19.94
2018-08-16T04:15:44.158Z,19.98
2018-08-16T04:18:12.638Z,19.93
2018-08-16T04:20:41.099Z,20.01
2018-08-16T04:23:09.640Z,19.90
2018-08-16T04:25:38.097Z,19.84
2018-08-16T04:28:06.579Z,19.64
2018-08-16T04:30:35.056Z,19.93
2018-08-16T04:33:03.820Z,19.86
2018-08-16T04:35:32.340Z,19.68
2018-08-16T04:38:00.960Z,19.80
2018-08-16T04:40:29.443Z,19.83
2018-08-16T04:42:57.923Z,19.99
2018-08-16T04:45:26.392Z,20.02
2018-08-16T04:47:54.859Z,20.18
2018-08-16T04:50:23.326Z,20.21
2018-08-16T04:52:51.801Z,20.16
2018-08-16T04:55:22.699Z,19.92
2018-08-16T04:57:51.147Z,19.78
2018-08-16T05:00:19.805Z,19.83
2018-08-16T05:02:48.315Z,19.77
2018-08-16T05:05:16.766Z,19.83
2018-08-16T05:07:45.211Z,19.93
2018-08-16T05:10:13.673Z,19.75
2018-08-16T05:12:42.158Z,19.79
2018-08-16T05:15:12.348Z,19.99
2018-08-16T05:17:40.879Z,20.31
2018-08-16T05:20:11.723Z,20.47
2018-08-16T05:22:40.179Z,20.43
2018-08-16T05:25:08.686Z,20.44
2018-08-16T05:27:37.112Z,20.65
2018-08-16T05:30:10.111Z,20.74
2018-08-16T05:32:38.534Z,20.76
2018-08-16T05:35:07.525Z,20.93
2018-08-16T05:37:36.891Z,20.99
2018-08-16T05:40:06.801Z,21.29
2018-08-16T05:42:35.238Z,21.25
2018-08-16T05:45:03.779Z,21.17
2018-08-16T05:47:32.571Z,21.40
2018-08-16T05:50:01.014Z,21.61
2018-08-16T05:52:29.734Z,21.72
2018-08-16T05:54:58.184Z,21.76
2018-08-16T05:57:26.689Z,21.84
2018-08-16T05:59:55.083Z,21.53
2018-08-16T06:02:23.772Z,21.44
2018-08-16T06:04:52.232Z,21.65
2018-08-16T06:07:20.818Z,22.11
2018-08-16T06:09:49.499Z,21.95
2018-08-16T06:12:17.975Z,22.20
2018-08-16T06:14:46.883Z,22.32
2018-08-16T06:17:15.744Z,21.83
2018-08-16T06:19:44.520Z,21.98
2018-08-16T06:22:13.264Z,22.14
2018-08-16T06:24:41.697Z,22.23
2018-08-16T06:27:10.139Z,22.35
2018-08-16T06:29:38.641Z,22.44
2018-08-16T06:32:07.560Z,22.98
2018-08-16T06:34:35.972Z,23.00
2018-08-16T06:37:04.531Z,23.24
2018-08-16T06:39:33.216Z,23.22
2018-08-16T06:42:01.721Z,23.03
2018-08-16T06:44:30.166Z,23.12
2018-08-16T06:46:58.920Z,22.82
2018-08-16T06:49:27.383Z,22.72
2018-08-16T06:51:55.835Z,22.62
2018-08-16T06:54:24.670Z,22.79
2018-08-16T06:56:53.209Z,23.04
2018-08-16T06:59:21.770Z,23.69
2018-08-16T07:01:50.263Z,23.50
2018-08-16T07:04:18.672Z,23.73
2018-08-16T07:06:47.146Z,23.90
2018-08-16T07:09:15.588Z,23.76
2018-08-16T07:11:44.119Z,23.17
2018-08-16T07:14:12.552Z,23.82
2018-08-16T07:16:40.993Z,23.72
2018-08-16T07:19:09.449Z,24.09
2018-08-16T07:21:38.032Z,24.09
2018-08-16T07:24:06.471Z,24.37
2018-08-16T07:26:35.206Z,23.94
2018-08-16T07:29:03.723Z,24.69
2018-08-16T07:31:32.146Z,24.12
2018-08-16T07:34:00.579Z,23.98
2018-08-16T07:36:29.068Z,24.28
2018-08-16T07:38:57.557Z,24.54
2018-08-16T07:41:26.053Z,24.53
2018-08-16T07:43:54.495Z,24.52
2018-08-16T07:46:23.216Z,24.39
2018-08-16T07:48:51.589Z,24.68
2018-08-16T07:51:20.181Z,25.00
2018-08-16T07:53:48.506Z,25.09
2018-08-16T07:56:16.948Z,25.42
2018-08-16T07:58:45.398Z,25.66
2018-08-16T08:01:13.859Z,25.12
2018-08-16T08:03:42.412Z,25.20
2018-08-16T08:06:10.858Z,25.44
2018-08-16T08:08:39.338Z,25.08
2018-08-16T08:11:07.763Z,25.23
2018-08-16T08:13:36.231Z,25.46
2018-08-16T08:16:04.820Z,26.08
2018-08-16T08:18:33.305Z,26.16
2018-08-16T08:21:01.850Z,26.21
2018-08-16T08:23:30.419Z,25.86
2018-08-16T08:25:58.926Z,25.56
2018-08-16T08:28:27.475Z,25.34
2018-08-16T08:30:55.939Z,25.44
2018-08-16T08:33:24.477Z,26.47
2018-08-16T08:36:04.360Z,26.31
2018-08-16T08:38:32.828Z,26.58
2018-08-16T08:41:01.292Z,26.87
2018-08-16T08:43:41.010Z,26.47
2018-08-16T08:46:09.705Z,26.89
2018-08-16T08:48:38.148Z,26.51
2018-08-16T08:51:06.619Z,26.68
2018-08-16T08:54:46.482Z,27.27
2018-08-16T08:59:28.605Z,26.94
2018-08-16T09:01:57.012Z,27.15
2018-08-16T09:04:25.477Z,27.69
2018-08-16T09:06:54.661Z,27.46
2018-08-16T09:09:23.322Z,27.60
2018-08-16T09:12:02.788Z,27.65
2018-08-16T09:14:42.304Z,27.05
2018-08-16T09:17:10.912Z,26.93
2018-08-16T09:19:39.580Z,27.95
2018-08-16T09:22:08.084Z,27.64
2018-08-16T09:24:36.528Z,27.76
2018-08-16T09:27:04.996Z,27.82
2018-08-16T09:30:42.490Z,28.36
2018-08-16T09:33:22.154Z,27.96
2018-08-16T09:35:50.696Z,27.92
2018-08-16T09:38:19.124Z,27.70
2018-08-16T09:40:47.532Z,28.47
2018-08-16T09:43:16.165Z,28.59
2018-08-16T09:48:01.026Z,29.09
2018-08-16T09:50:29.614Z,28.28
2018-08-16T09:52:58.291Z,29.05
2018-08-16T09:55:26.708Z,28.97
2018-08-16T09:57:56.023Z,29.13
2018-08-16T10:00:29.748Z,28.67
2018-08-16T10:02:58.228Z,29.48
2018-08-16T10:05:26.684Z,29.78
2018-08-16T10:07:55.397Z,29.76
2018-08-16T10:10:23.839Z,30.01
2018-08-16T10:12:52.298Z,30.33
2018-08-16T10:15:20.702Z,30.20
2018-08-16T10:17:49.177Z,29.32
2018-08-16T10:20:17.843Z,29.16
2018-08-16T10:22:46.488Z,29.62
2018-08-16T10:25:15.248Z,30.50
2018-08-16T10:27:43.652Z,29.92
2018-08-16T10:30:12.150Z,29.12
2018-08-16T10:32:40.596Z,29.95
2018-08-16T10:35:09.105Z,30.06
2018-08-16T10:37:37.628Z,30.11
2018-08-16T10:40:06.436Z,30.72
2018-08-16T10:42:34.879Z,30.99
2018-08-16T10:45:03.455Z,30.76
2018-08-16T10:47:31.873Z,29.40
2018-08-16T10:50:00.429Z,29.72
2018-08-16T10:52:28.919Z,30.34
2018-08-16T10:54:57.520Z,30.80
2018-08-16T10:57:26.081Z,29.79
2018-08-16T10:59:54.708Z,30.69
2018-08-16T11:02:23.175Z,30.89
2018-08-16T11:04:51.636Z,30.40
2018-08-16T11:07:20.177Z,30.77
2018-08-16T11:09:48.663Z,30.89
2018-08-16T11:12:17.090Z,29.82
2018-08-16T11:14:45.526Z,29.71
2018-08-16T11:17:13.980Z,30.02
2018-08-16T11:19:42.457Z,30.89
2018-08-16T11:22:11.099Z,31.03
2018-08-16T11:24:39.552Z,31.03
2018-08-16T11:27:08.939Z,30.87
2018-08-16T11:29:37.372Z,31.06
2018-08-16T11:32:05.847Z,31.21
2018-08-16T11:34:34.287Z,32.20
2018-08-16T11:37:02.738Z,32.61
2018-08-16T11:39:31.174Z,32.01
2018-08-16T11:41:59.616Z,31.88
2018-08-16T11:44:28.340Z,32.21
2018-08-16T11:46:57.072Z,33.44
2018-08-16T11:49:25.472Z,34.19
2018-08-16T11:51:53.887Z,33.52
2018-08-16T11:54:22.306Z,33.91
2018-08-16T11:56:50.857Z,33.66
2018-08-16T11:59:19.638Z,33.03
2018-08-16T12:01:48.316Z,33.78
2018-08-16T12:04:16.791Z,34.18
2018-08-16T12:06:45.365Z,34.03
2018-08-16T12:09:13.960Z,33.69
2018-08-16T12:11:42.449Z,34.28
2018-08-16T12:14:10.848Z,33.36
2018-08-16T12:16:39.301Z,33.73
2018-08-16T12:19:07.824Z,34.73
2018-08-16T12:21:36.290Z,34.61
2018-08-16T12:24:05.057Z,36.33
2018-08-16T12:26:33.472Z,35.89
2018-08-16T12:29:02.037Z,35.27
2018-08-16T12:31:30.391Z,34.53
2018-08-16T12:33:58.801Z,34.92
2018-08-16T12:36:27.236Z,36.61
2018-08-16T12:38:55.696Z,37.25
2018-08-16T12:41:24.142Z,36.38
2018-08-16T12:43:52.615Z,36.66
2018-08-16T12:46:21.362Z,37.26
2018-08-16T12:48:49.720Z,38.92
2018-08-16T12:51:19.512Z,39.59
2018-08-16T12:53:48.212Z,37.16
2018-08-16T12:56:17.695Z,36.35
2018-08-16T12:58:46.185Z,38.08
2018-08-16T13:01:14.680Z,39.06
2018-08-16T13:03:43.363Z,37.54
2018-08-16T13:06:12.075Z,37.53
2018-08-16T13:08:40.708Z,36.37
2018-08-16T13:11:09.343Z,35.31
2018-08-16T13:13:37.873Z,35.87
2018-08-16T13:16:07.080Z,36.08
2018-08-16T13:18:35.755Z,34.59
2018-08-16T13:21:04.203Z,34.31
2018-08-16T13:23:32.615Z,34.29
2018-08-16T13:26:01.152Z,33.86
2018-08-16T13:28:29.874Z,35.25
2018-08-16T13:30:58.316Z,35.03
2018-08-16T13:33:27.245Z,35.93
2018-08-16T13:35:55.725Z,35.07
2018-08-16T13:38:24.232Z,34.96
2018-08-16T13:40:52.703Z,35.42
2018-08-16T13:43:21.096Z,34.70
2018-08-16T13:45:49.530Z,37.40
2018-08-16T13:48:18.180Z,37.81
2018-08-16T13:50:46.624Z,36.82
2018-08-16T13:53:15.047Z,38.00
2018-08-16T13:55:43.499Z,39.22
2018-08-16T13:58:12.041Z,37.12
2018-08-16T14:00:40.498Z,38.60
2018-08-16T14:03:09.133Z,38.45
2018-08-16T14:05:37.892Z,37.48
2018-08-16T14:08:06.411Z,37.20
2018-08-16T14:10:34.845Z,34.91
2018-08-16T14:13:03.269Z,35.50
2018-08-16T14:15:31.788Z,37.33
2018-08-16T14:18:00.257Z,34.80
2018-08-16T14:20:28.726Z,35.31
2018-08-16T14:22:57.183Z,36.68
2018-08-16T14:25:25.605Z,37.07
2018-08-16T14:27:54.161Z,37.25
2018-08-16T14:30:22.598Z,34.39
2018-08-16T14:32:51.050Z,35.74
2018-08-16T14:35:19.553Z,36.07
2018-08-16T14:37:48.043Z,36.62
2018-08-16T14:40:16.518Z,36.06
2018-08-16T14:42:44.936Z,35.45
2018-08-16T14:45:13.357Z,35.54
2018-08-16T14:47:41.839Z,35.02
2018-08-16T14:50:10.660Z,36.32
2018-08-16T14:52:39.262Z,35.98
2018-08-16T14:55:07.738Z,38.04
2018-08-16T14:57:36.177Z,38.50
2018-08-16T15:00:05.018Z,38.11
2018-08-16T15:02:33.486Z,35.64
2018-08-16T15:05:01.921Z,36.42
2018-08-16T15:07:30.376Z,34.69
2018-08-16T15:09:58.795Z,33.21
2018-08-16T15:12:27.493Z,35.11
2018-08-16T15:14:55.917Z,33.85
2018-08-16T15:17:24.370Z,36.36
2018-08-16T15:19:52.841Z,36.91
2018-08-16T15:22:21.276Z,35.54
2018-08-16T15:24:49.746Z,36.18
2018-08-16T15:27:18.401Z,35.68
2018-08-16T15:29:46.836Z,34.17
2018-08-16T15:32:15.294Z,34.10
2018-08-16T15:34:43.850Z,35.27
2018-08-16T15:37:12.326Z,36.12
2018-08-16T15:39:40.760Z,36.37
2018-08-16T15:42:09.212Z,36.77
2018-08-16T15:44:37.659Z,38.10
2018-08-16T15:47:06.128Z,37.89
2018-08-16T15:49:34.624Z,38.54
2018-08-16T15:52:03.208Z,36.99
2018-08-16T15:54:31.656Z,36.63
2018-08-16T15:57:00.176Z,35.31
2018-08-16T15:59:28.606Z,35.13
2018-08-16T16:01:57.274Z,36.76
2018-08-16T16:04:25.934Z,36.64
2018-08-16T16:06:54.472Z,36.54
2018-08-16T16:09:22.880Z,36.79
2018-08-16T16:11:51.420Z,37.14
2018-08-16T16:14:19.861Z,38.06
2018-08-16T16:16:48.379Z,36.60
2018-08-16T16:19:16.868Z,37.00
2018-08-16T16:21:45.444Z,37.00
2018-08-16T16:24:13.912Z,37.08
2018-08-16T16:26:43.249Z,37.24
2018-08-16T16:29:11.706Z,37.02
2018-08-16T16:31:40.318Z,36.62
2018-08-16T16:34:09.530Z,35.96
2018-08-16T16:36:37.966Z,37.18
2018-08-16T16:39:09.559Z,37.01
2018-08-16T16:41:38.076Z,34.96
2018-08-16T16:44:06.613Z,37.19
2018-08-16T16:46:35.188Z,35.85
2018-08-16T16:49:03.842Z,36.06
2018-08-16T16:51:32.772Z,35.52
2018-08-16T16:54:01.527Z,35.06
2018-08-16T16:56:30.143Z,35.56
2018-08-16T16:58:58.675Z,36.09
2018-08-16T17:01:27.199Z,35.97
2018-08-16T17:03:55.677Z,35.24
2018-08-16T17:06:24.144Z,35.96
2018-08-16T17:08:52.588Z,35.81
2018-08-16T17:11:21.096Z,35.91
2018-08-16T17:13:50.337Z,35.36
2018-08-16T17:16:18.843Z,36.15
2018-08-16T17:18:47.319Z,34.92
2018-08-16T17:21:16.704Z,34.86
2018-08-16T17:23:48.929Z,34.21
2018-08-16T17:26:18.052Z,33.79
2018-08-16T17:28:48.672Z,33.36
2018-08-16T17:31:17.111Z,33.43
2018-08-16T17:33:45.559Z,34.25
2018-08-16T17:36:15.724Z,33.35
2018-08-16T17:38:50.143Z,33.47
2018-08-16T17:41:18.633Z,32.79
2018-08-16T17:43:47.299Z,32.12
2018-08-16T17:46:15.830Z,32.99
2018-08-16T17:48:44.291Z,31.71
2018-08-16T17:51:12.904Z,31.58
2018-08-16T17:53:41.352Z,31.45
2018-08-16T17:56:10.210Z,30.68
2018-08-16T17:58:38.660Z,30.47
2018-08-16T18:01:07.199Z,30.20
2018-08-16T18:03:35.715Z,29.58
2018-08-16T18:06:06.761Z,29.25
2018-08-16T18:08:35.211Z,28.99
2018-08-16T18:14:32.795Z,28.15
2018-08-16T18:17:01.232Z,28.46
2018-08-16T18:19:29.724Z,27.84
2018-08-16T18:21:58.154Z,27.85
2018-08-16T18:24:26.625Z,27.67
2018-08-16T18:26:55.207Z,27.60
2018-08-16T18:29:23.644Z,27.36
2018-08-16T18:31:52.091Z,27.28
2018-08-16T18:34:20.592Z,27.29
2018-08-16T18:36:49.192Z,27.32
2018-08-16T18:39:17.946Z,27.27
2018-08-16T18:41:46.392Z,26.70
2018-08-16T18:44:14.826Z,26.80
2018-08-16T18:46:43.292Z,26.81
2018-08-16T18:49:11.879Z,26.57
2018-08-16T18:51:40.368Z,26.42
2018-08-16T18:54:08.844Z,26.42
2018-08-16T18:56:37.339Z,26.32
2018-08-16T18:59:06.062Z,26.22
2018-08-16T19:01:34.734Z,26.29
2018-08-16T19:04:03.213Z,26.09
2018-08-16T19:06:31.649Z,26.16
2018-08-16T19:09:00.179Z,25.96
2018-08-16T19:11:28.808Z,25.89
2018-08-16T19:13:57.242Z,25.95
2018-08-16T19:16:25.985Z,25.78
2018-08-16T19:18:54.465Z,25.84
2018-08-16T19:21:22.867Z,25.67
2018-08-16T19:23:51.325Z,25.76
2018-08-16T19:26:19.798Z,25.88
2018-08-16T19:28:48.302Z,25.78
2018-08-16T19:31:16.748Z,25.79
2018-08-16T19:33:45.215Z,25.91
2018-08-16T19:36:13.870Z,25.91
2018-08-16T19:38:42.841Z,25.68
2018-08-16T19:41:11.509Z,25.70
2018-08-16T19:43:39.938Z,25.65
2018-08-16T19:46:08.408Z,25.58
2018-08-16T19:48:37.519Z,25.52
2018-08-16T19:51:06.211Z,25.44
2018-08-16T19:53:34.988Z,25.35
2018-08-16T19:56:03.693Z,25.25
2018-08-16T19:58:32.440Z,25.17
2018-08-16T20:01:00.964Z,25.01
2018-08-16T20:03:29.482Z,25.02
2018-08-16T20:05:57.956Z,24.94
2018-08-16T20:08:26.365Z,24.85
2018-08-16T20:10:54.803Z,24.92
2018-08-16T20:13:23.362Z,24.78
2018-08-16T20:15:51.842Z,24.82
2018-08-16T20:18:20.352Z,24.82
2018-08-16T20:20:48.809Z,24.79
2018-08-16T20:23:17.249Z,24.64
2018-08-16T20:25:45.860Z,24.75
2018-08-16T20:28:14.291Z,24.82
2018-08-16T20:30:42.723Z,24.62
2018-08-16T20:33:11.215Z,24.68
2018-08-16T20:35:39.606Z,24.54
2018-08-16T20:38:08.072Z,24.51
2018-08-16T20:40:36.834Z,24.47
2018-08-16T20:43:05.339Z,24.36
2018-08-16T20:45:33.798Z,24.12
2018-08-16T20:48:16.772Z,24.28
2018-08-16T20:50:45.197Z,24.24
2018-08-16T20:53:13.642Z,24.11
2018-08-16T20:55:42.092Z,24.16
2018-08-16T20:58:10.510Z,24.03
2018-08-16T21:00:39.081Z,24.06
2018-08-16T21:03:07.514Z,24.03
2018-08-16T21:05:35.944Z,24.14
2018-08-16T21:08:04.632Z,24.16
2018-08-16T21:10:33.038Z,24.28
2018-08-16T21:13:01.521Z,24.33
2018-08-16T21:15:29.959Z,24.26
2018-08-16T21:17:58.390Z,24.08
2018-08-16T21:20:26.874Z,23.92
2018-08-16T21:22:55.276Z,23.96
2018-08-16T21:25:23.761Z,24.01
2018-08-16T21:27:52.534Z,23.87
2018-08-16T21:30:20.991Z,23.79
2018-08-16T21:32:49.440Z,23.86
2018-08-16T21:35:18.051Z,23.75
2018-08-16T21:37:46.742Z,23.80
2018-08-16T21:40:15.199Z,23.64
2018-08-16T21:42:43.646Z,23.75
2018-08-16T21:45:12.124Z,23.78
2018-08-16T21:47:40.548Z,23.71
2018-08-16T21:50:09.418Z,23.75
2018-08-16T21:52:37.836Z,23.73
2018-08-16T21:55:06.292Z,23.72
2018-08-16T21:57:34.740Z,23.65
2018-08-16T22:00:03.271Z,23.57
2018-08-16T22:02:31.735Z,23.52
2018-08-16T22:05:00.159Z,23.54
2018-08-16T22:08:11.411Z,23.60
2018-08-16T22:10:40.941Z,23.41
2018-08-16T22:13:09.473Z,23.39
2018-08-16T22:15:38.313Z,23.38
2018-08-16T22:18:07.266Z,23.31
2018-08-16T22:20:35.906Z,23.21
2018-08-16T22:23:04.387Z,23.19
2018-08-16T22:25:32.825Z,23.21
2018-08-16T22:28:01.274Z,23.23
2018-08-16T22:30:29.697Z,23.17
2018-08-16T22:32:58.489Z,23.17
2018-08-16T22:35:26.937Z,23.32
2018-08-16T22:37:55.379Z,23.19
2018-08-16T22:40:23.844Z,23.20
2018-08-16T22:42:52.315Z,23.14
2018-08-16T22:45:20.859Z,23.07
2018-08-16T22:47:49.343Z,23.05
2018-08-16T22:50:18.239Z,23.11
2018-08-16T22:52:46.662Z,23.01
2018-08-16T22:55:15.095Z,23.01
2018-08-16T22:57:43.757Z,22.95
2018-08-16T23:00:13.048Z,22.97
2018-08-16T23:17:27.770Z,23.06
2018-08-16T23:19:56.191Z,23.02
2018-08-16T23:22:24.651Z,22.94
2018-08-16T23:24:53.077Z,22.93
2018-08-16T23:27:21.594Z,22.88
2018-08-16T23:29:50.078Z,22.84
2018-08-16T23:32:18.584Z,22.83
2018-08-16T23:34:47.008Z,22.78
2018-08-16T23:37:15.485Z,22.77
2018-08-16T23:39:43.945Z,22.65
2018-08-16T23:42:12.459Z,22.67
2018-08-16T23:44:40.928Z,22.60
2018-08-16T23:47:09.388Z,22.58
2018-08-16T23:49:38.024Z,22.51
2018-08-16T23:52:06.465Z,22.43
2018-08-16T23:54:35.512Z,22.36
2018-08-16T23:57:03.976Z,22.34
2018-08-16T23:59:38.929Z,22.21
